Time;durP1;ratioP1;P1;durP2;ratioP2;P2;SDS_P1;SDS_P2;PMS_P1;PMS_P2;Temp;Humidity;BMP_temperature;BMP_pressure;BME280_temperature;BME280_humidity;BME280_pressure;Samples;Min_cycle;Max_cycle;Signal;HPM_P1;HPM_P2
2023/03/17 00:00:47;;;;;;;6.10;3.72;;;5.80;75.40;;;;;;5052539;28;20017;-49
2023/03/17 00:03:35;;;;;;;4.60;3.20;;;5.80;75.60;;;;;;5051352;28;20025;-45
2023/03/17 00:06:11;;;;;;;5.80;4.18;;;5.80;75.60;;;;;;5043958;28;20041;-45
2023/03/17 00:08:37;;;;;;;6.63;4.47;;;5.80;75.70;;;;;;5031294;28;20033;-47
2023/03/17 00:11:03;;;;;;;6.60;3.80;;;5.70;75.90;;;;;;5031750;28;20033;-46
2023/03/17 00:13:32;;;;;;;7.03;3.83;;;5.70;76.10;;;;;;5032966;28;20132;-45
2023/03/17 00:16:01;;;;;;;6.35;3.75;;;5.70;76.20;;;;;;5031078;28;20041;-50
2023/03/17 00:18:32;;;;;;;8.85;4.10;;;5.70;76.30;;;;;;5036144;28;20032;-50
2023/03/17 00:20:58;;;;;;;5.32;3.97;;;5.70;76.40;;;;;;5056373;28;20128;-47
2023/03/17 00:23:25;;;;;;;6.40;4.68;;;5.60;76.50;;;;;;5047843;28;20032;-46
2023/03/17 00:25:53;;;;;;;5.22;3.90;;;5.70;76.40;;;;;;5036289;28;20035;-48
2023/03/17 00:28:26;;;;;;;5.90;4.00;;;5.70;76.70;;;;;;5035201;28;20033;-45
2023/03/17 00:30:59;;;;;;;9.65;4.45;;;5.70;76.80;;;;;;5036270;28;20037;-46
2023/03/17 00:33:28;;;;;;;5.43;3.85;;;5.70;76.80;;;;;;5035582;28;20037;-46
2023/03/17 00:36:00;;;;;;;6.05;3.88;;;5.70;76.70;;;;;;5035806;28;20033;-48
2023/03/17 00:38:27;;;;;;;9.65;4.10;;;5.70;76.70;;;;;;5050802;28;20033;-46
2023/03/17 00:40:54;;;;;;;5.13;3.58;;;5.70;77.00;;;;;;5036139;28;20096;-48
2023/03/17 00:43:22;;;;;;;8.45;4.13;;;5.70;77.00;;;;;;5035888;28;20083;-46
2023/03/17 00:45:49;;;;;;;8.98;4.20;;;5.70;77.00;;;;;;5035427;28;20061;-46
2023/03/17 00:48:19;;;;;;;8.07;4.00;;;5.70;77.10;;;;;;5036070;28;20136;-49
2023/03/17 00:50:48;;;;;;;5.30;4.15;;;5.70;77.00;;;;;;5034519;28;20046;-47
2023/03/17 00:53:16;;;;;;;6.72;3.95;;;5.70;77.00;;;;;;5034349;28;20030;-46
2023/03/17 00:55:44;;;;;;;7.10;4.32;;;5.70;77.10;;;;;;5034887;28;20042;-45
2023/03/17 00:58:32;;;;;;;7.28;3.67;;;5.70;77.20;;;;;;5034673;28;20072;-45
2023/03/17 01:01:01;;;;;;;6.72;4.78;;;5.70;77.30;;;;;;5051051;28;20064;-44
2023/03/17 01:03:28;;;;;;;9.13;4.05;;;5.80;77.10;;;;;;5035526;28;20088;-47
2023/03/17 01:05:56;;;;;;;6.25;4.20;;;5.80;77.10;;;;;;5035494;28;20033;-45
2023/03/17 01:08:26;;;;;;;6.25;3.95;;;5.80;77.10;;;;;;5034349;28;20029;-44
2023/03/17 01:10:55;;;;;;;6.15;4.18;;;5.70;77.10;;;;;;5034684;28;20033;-45
2023/03/17 01:13:23;;;;;;;5.68;3.53;;;5.70;77.20;;;;;;5053112;28;20065;-45
2023/03/17 01:15:51;;;;;;;7.15;4.35;;;5.70;77.30;;;;;;5055070;28;20072;-44
2023/03/17 01:18:31;;;;;;;7.00;3.97;;;5.70;77.40;;;;;;5045306;28;20029;-44
2023/03/17 01:20:58;;;;;;;5.63;3.70;;;5.70;77.40;;;;;;5035196;28;20092;-45
2023/03/17 01:23:26;;;;;;;6.70;4.95;;;5.70;77.30;;;;;;5050964;28;20025;-45
2023/03/17 01:25:55;;;;;;;8.27;5.10;;;5.80;77.30;;;;;;5034015;28;20022;-48
2023/03/17 01:28:23;;;;;;;5.32;3.80;;;5.80;77.20;;;;;;5034365;28;20030;-45
2023/03/17 01:30:50;;;;;;;5.85;4.40;;;5.80;77.40;;;;;;5035131;28;20059;-44
2023/03/17 01:33:20;;;;;;;7.68;3.67;;;5.70;77.50;;;;;;5035149;28;20385;-46
2023/03/17 01:35:46;;;;;;;9.00;4.80;;;5.80;77.50;;;;;;5033784;28;20328;-46
2023/03/17 01:38:14;;;;;;;11.07;4.75;;;5.80;77.40;;;;;;5033873;28;20439;-45
2023/03/17 01:40:48;;;;;;;6.43;3.92;;;5.80;77.30;;;;;;5033914;28;20109;-46
2023/03/17 01:43:32;;;;;;;7.28;4.90;;;5.80;77.40;;;;;;5034039;28;20124;-45
2023/03/17 01:46:19;;;;;;;8.00;4.53;;;5.80;77.30;;;;;;5035132;28;20048;-45
2023/03/17 01:49:08;;;;;;;7.60;4.20;;;5.80;77.60;;;;;;5033847;28;20034;-44
2023/03/17 01:51:53;;;;;;;6.78;5.00;;;5.70;77.60;;;;;;5034853;28;20073;-45
2023/03/17 01:54:34;;;;;;;10.07;4.15;;;5.80;77.60;;;;;;5034169;28;20033;-44
2023/03/17 01:57:16;;;;;;;6.15;4.65;;;5.80;77.60;;;;;;5034048;28;20028;-45
2023/03/17 01:59:54;;;;;;;7.95;4.60;;;5.80;77.70;;;;;;5033399;28;20033;-45
2023/03/17 02:02:38;;;;;;;9.60;4.10;;;5.80;77.70;;;;;;5033601;28;20043;-45
2023/03/17 02:05:08;;;;;;;11.60;5.00;;;5.80;77.80;;;;;;5016489;28;20038;-44
2023/03/17 02:07:36;;;;;;;6.28;4.28;;;5.70;77.80;;;;;;5032540;28;20030;-44
2023/03/17 02:10:05;;;;;;;7.70;4.97;;;5.70;77.90;;;;;;5032857;28;20034;-44
2023/03/17 02:12:35;;;;;;;7.45;4.47;;;5.80;77.90;;;;;;5033192;28;20048;-44
2023/03/17 02:15:04;;;;;;;6.05;4.32;;;5.80;77.80;;;;;;5034241;28;20099;-44
2023/03/17 02:17:34;;;;;;;6.47;4.40;;;5.80;77.80;;;;;;5034027;28;20025;-44
2023/03/17 02:20:15;;;;;;;6.82;4.63;;;5.70;77.90;;;;;;5034035;28;20039;-45
2023/03/17 02:22:51;;;;;;;7.53;4.30;;;5.80;77.90;;;;;;5033925;28;20410;-46
2023/03/17 02:25:29;;;;;;;9.20;4.35;;;5.80;77.90;;;;;;5044251;28;20039;-45
2023/03/17 02:28:07;;;;;;;7.47;4.45;;;5.80;77.90;;;;;;5053801;28;20020;-44
2023/03/17 02:30:35;;;;;;;7.93;4.40;;;5.80;77.90;;;;;;5053133;28;20462;-45
2023/03/17 02:33:04;;;;;;;8.20;4.32;;;5.80;78.00;;;;;;5032495;28;20548;-46
2023/03/17 02:35:33;;;;;;;6.45;4.03;;;5.70;77.90;;;;;;5033706;28;20079;-44
2023/03/17 02:38:02;;;;;;;9.13;5.15;;;5.70;78.10;;;;;;5033648;28;20033;-44
2023/03/17 02:40:30;;;;;;;6.70;4.60;;;5.70;78.00;;;;;;5033918;28;20548;-44
2023/03/17 02:42:58;;;;;;;6.55;4.20;;;5.70;77.90;;;;;;5033776;28;20037;-45
2023/03/17 02:45:26;;;;;;;5.63;4.07;;;5.70;78.20;;;;;;5032382;28;20033;-45
2023/03/17 02:47:54;;;;;;;7.13;4.85;;;5.70;78.20;;;;;;5033322;28;20034;-45
2023/03/17 02:50:26;;;;;;;6.85;4.93;;;5.70;78.20;;;;;;5032757;28;20045;-45
2023/03/17 02:52:54;;;;;;;7.57;4.72;;;5.70;78.30;;;;;;5032574;28;20033;-45
2023/03/17 02:55:20;;;;;;;6.38;4.15;;;5.70;78.30;;;;;;5033777;28;20037;-45
2023/03/17 02:57:48;;;;;;;6.97;4.22;;;5.70;78.30;;;;;;5033430;28;20486;-44
2023/03/17 03:00:18;;;;;;;6.50;4.35;;;5.70;78.40;;;;;;5032250;28;20029;-45
2023/03/17 03:02:45;;;;;;;10.13;4.93;;;5.60;78.50;;;;;;5033338;28;20033;-47
2023/03/17 03:05:12;;;;;;;6.63;4.45;;;5.60;78.60;;;;;;5032419;28;20461;-46
2023/03/17 03:07:42;;;;;;;8.70;5.45;;;5.60;78.70;;;;;;5035120;28;20029;-46
2023/03/17 03:10:09;;;;;;;7.13;4.40;;;5.70;78.70;;;;;;5053172;28;20359;-45
2023/03/17 03:12:36;;;;;;;8.45;4.50;;;5.70;78.80;;;;;;5052181;28;20474;-45
2023/03/17 03:15:08;;;;;;;6.90;4.45;;;5.60;78.80;;;;;;5032627;28;20484;-47
2023/03/17 03:17:35;;;;;;;7.60;4.82;;;5.60;78.90;;;;;;5032938;28;20397;-46
2023/03/17 03:20:05;;;;;;;7.43;4.70;;;5.60;79.10;;;;;;5033097;28;20359;-44
2023/03/17 03:22:32;;;;;;;8.68;4.50;;;5.60;79.20;;;;;;5046232;28;20033;-49
2023/03/17 03:24:59;;;;;;;9.15;4.45;;;5.60;79.20;;;;;;5052109;28;20075;-45
2023/03/17 03:27:29;;;;;;;6.40;4.25;;;5.60;79.20;;;;;;5035073;28;20086;-46
2023/03/17 03:29:58;;;;;;;6.15;4.25;;;5.60;79.30;;;;;;5033151;28;20400;-45
2023/03/17 03:32:25;;;;;;;6.57;4.57;;;5.60;79.40;;;;;;5032284;28;20033;-45
2023/03/17 03:34:55;;;;;;;6.93;4.55;;;5.60;79.50;;;;;;5040980;28;20286;-44
2023/03/17 03:37:22;;;;;;;7.30;4.30;;;5.60;79.60;;;;;;5053011;28;20357;-47
2023/03/17 03:39:52;;;;;;;5.82;3.92;;;5.50;79.60;;;;;;5041040;28;20350;-45
2023/03/17 03:42:20;;;;;;;7.70;4.60;;;5.50;79.60;;;;;;5033364;28;20034;-46
2023/03/17 03:44:46;;;;;;;7.07;4.50;;;5.50;79.50;;;;;;5048610;28;20021;-45
2023/03/17 03:47:13;;;;;;;7.97;5.03;;;5.50;79.50;;;;;;5033028;28;20480;-45
2023/03/17 03:49:43;;;;;;;7.57;4.53;;;5.40;79.60;;;;;;5032693;28;20454;-51
2023/03/17 03:52:10;;;;;;;5.22;3.80;;;5.50;79.40;;;;;;5034330;28;20045;-44
2023/03/17 03:54:37;;;;;;;5.75;4.38;;;5.40;79.50;;;;;;5036831;28;20463;-46
2023/03/17 03:57:06;;;;;;;6.63;4.05;;;5.40;79.50;;;;;;5035921;28;20057;-48
2023/03/17 03:59:33;;;;;;;6.10;4.72;;;5.40;79.50;;;;;;5054965;28;20023;-44
2023/03/17 04:02:00;;;;;;;6.65;4.25;;;5.40;79.50;;;;;;5056286;28;20040;-46
2023/03/17 04:04:28;;;;;;;7.43;4.45;;;5.40;79.50;;;;;;5049137;28;20101;-46
2023/03/17 04:06:56;;;;;;;6.65;4.75;;;5.40;79.30;;;;;;5035484;28;20030;-44
2023/03/17 04:09:24;;;;;;;6.95;4.10;;;5.40;79.50;;;;;;5036324;28;20034;-48
2023/03/17 04:11:52;;;;;;;5.95;4.70;;;5.40;79.40;;;;;;5036418;28;20031;-48
2023/03/17 04:14:21;;;;;;;6.85;4.18;;;5.40;79.40;;;;;;5050195;28;20474;-45
2023/03/17 04:16:49;;;;;;;5.13;3.70;;;5.40;79.30;;;;;;5055506;28;20057;-46
2023/03/17 04:19:16;;;;;;;6.18;4.10;;;5.40;79.20;;;;;;5050439;28;20028;-46
2023/03/17 04:21:47;;;;;;;5.10;3.58;;;5.50;79.20;;;;;;5036261;28;20072;-47
2023/03/17 04:24:14;;;;;;;7.25;3.90;;;5.50;79.20;;;;;;5036448;28;20113;-48
2023/03/17 04:26:42;;;;;;;6.65;4.38;;;5.50;79.20;;;;;;5036141;28;20092;-45
2023/03/17 04:29:14;;;;;;;7.07;5.20;;;5.50;79.20;;;;;;5036295;28;20052;-48
2023/03/17 04:31:41;;;;;;;6.00;3.85;;;5.40;79.20;;;;;;5036401;28;20025;-47
2023/03/17 04:34:15;;;;;;;7.53;4.45;;;5.50;79.20;;;;;;5052083;28;20346;-46
2023/03/17 04:36:44;;;;;;;6.93;4.20;;;5.50;79.20;;;;;;5045988;28;20060;-46
2023/03/17 04:39:23;;;;;;;5.78;4.18;;;5.40;79.10;;;;;;5055168;28;20400;-47
2023/03/17 04:41:52;;;;;;;6.72;3.67;;;5.40;79.10;;;;;;5038506;28;20462;-47
2023/03/17 04:44:18;;;;;;;7.05;4.00;;;5.40;79.30;;;;;;5040091;28;20033;-48
2023/03/17 04:46:46;;;;;;;5.97;4.10;;;5.40;79.50;;;;;;5035426;28;20107;-46
2023/03/17 04:49:15;;;;;;;7.28;5.03;;;5.40;79.50;;;;;;5035725;28;20365;-45
2023/03/17 04:51:42;;;;;;;6.20;4.57;;;5.40;79.40;;;;;;5035959;28;20034;-46
2023/03/17 04:54:15;;;;;;;6.43;3.97;;;5.40;79.30;;;;;;5035632;28;20057;-46
2023/03/17 04:56:45;;;;;;;8.25;4.50;;;5.40;79.40;;;;;;5035550;28;20025;-45
2023/03/17 04:59:12;;;;;;;6.90;4.65;;;5.40;79.30;;;;;;5035712;28;20103;-49
2023/03/17 05:01:40;;;;;;;8.40;4.75;;;5.40;79.40;;;;;;5034575;28;20028;-45
2023/03/17 05:04:06;;;;;;;6.22;4.50;;;5.40;79.20;;;;;;5034357;28;20116;-44
2023/03/17 05:06:34;;;;;;;5.85;3.70;;;5.40;79.20;;;;;;5035689;28;20087;-45
2023/03/17 05:09:05;;;;;;;5.95;4.38;;;5.40;79.10;;;;;;5035315;28;20056;-45
2023/03/17 05:11:32;;;;;;;8.07;4.80;;;5.40;79.00;;;;;;5035270;28;20025;-45
2023/03/17 05:13:58;;;;;;;6.18;3.97;;;5.40;79.00;;;;;;5034258;28;20053;-46
2023/03/17 05:16:25;;;;;;;9.48;4.82;;;5.40;78.90;;;;;;5034905;28;20072;-46
2023/03/17 05:18:54;;;;;;;6.07;4.40;;;5.40;79.00;;;;;;5035510;28;20026;-44
2023/03/17 05:21:20;;;;;;;6.70;4.28;;;5.40;78.90;;;;;;5018027;28;20022;-46
2023/03/17 05:23:47;;;;;;;7.97;4.63;;;5.40;78.80;;;;;;5035300;28;20100;-45
2023/03/17 05:26:14;;;;;;;6.68;3.97;;;5.40;78.80;;;;;;5034338;28;20094;-46
2023/03/17 05:28:42;;;;;;;7.85;5.22;;;5.40;79.00;;;;;;5035143;28;20048;-46
2023/03/17 05:31:10;;;;;;;8.00;4.57;;;5.40;78.80;;;;;;5034967;28;20026;-44
2023/03/17 05:33:38;;;;;;;9.48;4.50;;;5.40;78.90;;;;;;5035187;28;20094;-45
2023/03/17 05:36:08;;;;;;;6.53;4.25;;;5.40;78.80;;;;;;5045363;28;20041;-45
2023/03/17 05:38:34;;;;;;;6.70;4.25;;;5.30;79.00;;;;;;5054737;28;20040;-46
2023/03/17 05:41:03;;;;;;;7.50;4.20;;;5.30;79.00;;;;;;5054901;28;20029;-45
2023/03/17 05:43:30;;;;;;;6.35;4.10;;;5.30;79.00;;;;;;5054926;28;20044;-46
2023/03/17 05:45:59;;;;;;;7.55;3.97;;;5.30;79.00;;;;;;5052401;28;20025;-47
2023/03/17 05:48:30;;;;;;;6.30;4.20;;;5.30;79.10;;;;;;5054618;28;20025;-45
2023/03/17 05:50:59;;;;;;;6.80;4.40;;;5.30;79.10;;;;;;5054523;28;20267;-45
2023/03/17 05:53:26;;;;;;;6.10;4.28;;;5.30;79.20;;;;;;5053710;28;20110;-48
2023/03/17 05:55:53;;;;;;;6.97;4.65;;;5.20;79.20;;;;;;5054511;28;20025;-45
2023/03/17 05:58:22;;;;;;;5.97;4.32;;;5.20;79.30;;;;;;5040506;28;20355;-48
2023/03/17 06:00:52;;;;;;;7.53;5.10;;;5.20;79.20;;;;;;5034721;28;20021;-45
2023/03/17 06:03:17;;;;;;;6.05;4.40;;;5.20;79.40;;;;;;5055481;28;20344;-44
2023/03/17 06:05:44;;;;;;;5.28;4.43;;;5.30;79.30;;;;;;5054414;28;20036;-44
2023/03/17 06:08:14;;;;;;;7.25;4.78;;;5.20;79.30;;;;;;5054065;28;20024;-45
2023/03/17 06:10:44;;;;;;;6.05;4.13;;;5.30;79.30;;;;;;5054065;28;20024;-46
2023/03/17 06:13:11;;;;;;;6.28;4.43;;;5.30;79.20;;;;;;5042793;28;20485;-45
2023/03/17 06:15:42;;;;;;;7.78;5.50;;;5.30;79.00;;;;;;5034576;28;20128;-48
2023/03/17 06:18:10;;;;;;;8.32;4.55;;;5.40;78.80;;;;;;5054047;28;20043;-46
2023/03/17 06:20:37;;;;;;;5.32;3.95;;;5.40;78.80;;;;;;5053903;28;20017;-46
2023/03/17 06:23:05;;;;;;;7.38;4.28;;;5.40;78.70;;;;;;5054017;28;20510;-45
2023/03/17 06:25:33;;;;;;;8.43;4.47;;;5.50;78.60;;;;;;5039046;28;20379;-45
2023/03/17 06:28:02;;;;;;;7.45;4.15;;;5.50;78.30;;;;;;5033734;28;20037;-48
2023/03/17 06:30:32;;;;;;;7.85;4.53;;;5.50;78.50;;;;;;5033273;28;20340;-45
2023/03/17 06:33:01;;;;;;;;;;;5.60;78.40;;;;;;5033554;28;20045;-46
2023/03/17 06:35:29;;;;;;;7.53;3.85;;;5.60;78.00;;;;;;5034072;28;19909;-47
2023/03/17 06:37:55;;;;;;;9.27;4.32;;;5.70;78.00;;;;;;5032993;28;20040;-46
2023/03/17 06:40:23;;;;;;;6.57;4.38;;;5.70;77.90;;;;;;5042359;28;20092;-47
2023/03/17 06:42:50;;;;;;;9.82;4.28;;;5.90;77.80;;;;;;5053580;28;20458;-45
2023/03/17 06:45:19;;;;;;;6.82;4.03;;;5.90;77.80;;;;;;5051365;28;20350;-46
2023/03/17 06:47:46;;;;;;;5.35;4.03;;;6.00;77.50;;;;;;5049405;28;20082;-47
2023/03/17 06:50:14;;;;;;;6.38;4.28;;;6.20;77.30;;;;;;5033355;28;20131;-47
2023/03/17 06:52:40;;;;;;;8.00;4.80;;;6.20;77.10;;;;;;5033557;28;20025;-46
2023/03/17 06:55:08;;;;;;;7.03;4.72;;;6.30;77.00;;;;;;5033558;28;20029;-47
2023/03/17 06:57:38;;;;;;;5.40;4.00;;;6.50;76.30;;;;;;5032527;28;20371;-45
2023/03/17 07:00:05;;;;;;;5.43;3.63;;;6.70;75.50;;;;;;5033334;28;20053;-44
2023/03/17 07:02:34;;;;;;;8.40;4.50;;;6.80;75.10;;;;;;5033176;28;20114;-47
2023/03/17 07:05:02;;;;;;;6.47;4.35;;;7.00;74.70;;;;;;5033362;28;20030;-45
2023/03/17 07:07:34;;;;;;;8.37;4.37;;;7.20;74.00;;;;;;5033768;28;20033;-48
2023/03/17 07:10:03;;;;;;;7.22;4.68;;;7.20;74.20;;;;;;5033574;28;20052;-48
2023/03/17 07:12:31;;;;;;;6.93;3.88;;;7.30;74.20;;;;;;5033151;28;20038;-46
2023/03/17 07:15:00;;;;;;;6.90;4.10;;;7.30;74.00;;;;;;5032869;28;20059;-47
2023/03/17 07:17:27;;;;;;;9.23;3.85;;;7.30;74.10;;;;;;5031999;28;20033;-46
2023/03/17 07:19:56;;;;;;;5.20;4.35;;;7.30;74.40;;;;;;5033427;28;20040;-48
2023/03/17 07:22:22;;;;;;;6.68;4.55;;;7.40;74.30;;;;;;5032999;28;20108;-47
2023/03/17 07:24:49;;;;;;;5.88;3.80;;;7.40;74.50;;;;;;5032761;28;20104;-47
2023/03/17 07:27:18;;;;;;;6.47;4.20;;;7.60;73.80;;;;;;5031581;28;20033;-46
2023/03/17 07:29:46;;;;;;;;;;;7.80;73.20;;;;;;5032006;28;20045;-49
2023/03/17 07:32:14;;;;;;;6.88;3.72;;;8.00;73.10;;;;;;5033304;28;19908;-46
2023/03/17 07:34:40;;;;;;;7.38;3.72;;;8.20;72.20;;;;;;5031874;28;20140;-46
2023/03/17 07:37:07;;;;;;;7.57;4.25;;;8.20;71.30;;;;;;5032011;28;20519;-47
2023/03/17 07:39:34;;;;;;;8.18;3.97;;;8.10;71.70;;;;;;5032730;28;20060;-47
2023/03/17 07:42:01;;;;;;;5.88;3.83;;;8.10;71.60;;;;;;5052419;28;20060;-45
2023/03/17 07:44:29;;;;;;;8.23;4.20;;;8.20;71.40;;;;;;5052608;28;20036;-50
2023/03/17 07:47:00;;;;;;;6.50;4.18;;;8.20;71.70;;;;;;5052552;28;20420;-45
2023/03/17 07:49:28;;;;;;;6.60;4.65;;;8.20;71.70;;;;;;5033873;28;20036;-47
2023/03/17 07:51:53;;;;;;;8.20;4.35;;;8.20;71.70;;;;;;5032263;28;20037;-48
2023/03/17 07:54:24;;;;;;;6.03;3.85;;;8.30;71.80;;;;;;5032544;28;20040;-46
2023/03/17 07:56:52;;;;;;;7.22;4.18;;;8.50;71.00;;;;;;5032628;28;20044;-45
2023/03/17 07:59:19;;;;;;;5.70;3.85;;;8.60;70.90;;;;;;5032004;28;20466;-47
2023/03/17 08:01:47;;;;;;;6.47;4.35;;;8.70;70.70;;;;;;5032873;28;20026;-48
2023/03/17 08:04:13;;;;;;;6.68;4.45;;;8.90;70.20;;;;;;5032586;28;20390;-46
2023/03/17 08:06:41;;;;;;;6.22;3.85;;;9.40;69.70;;;;;;5031853;28;20045;-45
2023/03/17 08:09:14;;;;;;;5.25;3.88;;;9.60;68.50;;;;;;5032172;28;20107;-46
2023/03/17 08:11:41;;;;;;;5.80;4.45;;;9.60;68.40;;;;;;5044361;28;20362;-45
2023/03/17 08:14:10;;;;;;;6.07;4.20;;;9.60;68.30;;;;;;5052932;28;20040;-48
2023/03/17 08:16:37;;;;;;;6.35;4.05;;;9.50;68.40;;;;;;5037237;28;20045;-47
2023/03/17 08:19:05;;;;;;;5.93;4.32;;;9.50;69.20;;;;;;5031648;28;20022;-46
2023/03/17 08:21:31;;;;;;;8.07;5.10;;;9.40;69.10;;;;;;5032307;28;20079;-47
2023/03/17 08:23:58;;;;;;;7.30;4.43;;;9.50;68.80;;;;;;5046236;28;20028;-46
2023/03/17 08:26:25;;;;;;;7.07;4.05;;;9.40;69.00;;;;;;5047968;28;20052;-46
2023/03/17 08:28:53;;;;;;;8.65;4.78;;;9.30;69.00;;;;;;5032454;28;20360;-45
2023/03/17 08:31:21;;;;;;;5.93;3.70;;;9.10;70.10;;;;;;5032125;28;20446;-46
2023/03/17 08:33:52;;;;;;;5.75;3.90;;;9.30;70.20;;;;;;5032579;28;20471;-47
2023/03/17 08:36:22;;;;;;;9.30;4.93;;;9.90;69.80;;;;;;5031221;28;20030;-46
2023/03/17 08:38:49;;;;;;;;;;;10.70;68.30;;;;;;5033984;28;20103;-47
2023/03/17 08:41:22;;;;;;;7.80;4.78;;;11.40;65.80;;;;;;5036060;28;19905;-45
2023/03/17 08:43:50;;;;;;;6.38;4.47;;;11.90;63.30;;;;;;5035138;28;20034;-48
2023/03/17 08:46:27;;;;;;;5.45;3.88;;;12.40;61.80;;;;;;5036226;28;20095;-49
2023/03/17 08:48:55;;;;;;;5.88;3.55;;;12.60;62.00;;;;;;5034745;28;20481;-49
2023/03/17 08:51:34;;;;;;;6.05;3.55;;;12.90;60.60;;;;;;5034935;28;20438;-47
2023/03/17 08:54:02;;;;;;;6.72;4.07;;;13.30;58.40;;;;;;5052294;28;20037;-46
2023/03/17 08:56:28;;;;;;;4.60;3.17;;;13.40;58.50;;;;;;5055829;28;20048;-51
2023/03/17 08:58:54;;;;;;;6.30;3.58;;;13.50;57.70;;;;;;5024377;28;20029;-46
2023/03/17 09:01:23;;;;;;;6.35;3.95;;;13.60;57.20;;;;;;5017925;28;20034;-49
2023/03/17 09:03:54;;;;;;;5.75;3.55;;;13.60;57.90;;;;;;5050977;28;20100;-46
2023/03/17 09:06:21;;;;;;;5.75;3.83;;;13.70;55.80;;;;;;5035569;28;20042;-49
2023/03/17 09:08:53;;;;;;;5.45;3.13;;;13.30;57.50;;;;;;5035490;28;20033;-48
2023/03/17 09:11:30;;;;;;;7.80;4.38;;;13.10;58.80;;;;;;5034763;28;20698;-50
2023/03/17 09:14:06;;;;;;;5.18;3.50;;;13.10;58.40;;;;;;5034623;28;20042;-48
2023/03/17 09:16:33;;;;;;;5.47;3.90;;;12.90;57.90;;;;;;5035210;28;20050;-50
2023/03/17 09:19:05;;;;;;;5.30;4.25;;;12.90;58.40;;;;;;5034236;28;20029;-51
2023/03/17 09:21:32;;;;;;;5.43;3.90;;;13.20;58.00;;;;;;5034080;28;20113;-50
2023/03/17 09:24:00;;;;;;;6.57;3.65;;;13.40;56.80;;;;;;5035325;28;20451;-47
2023/03/17 09:26:29;;;;;;;4.63;3.45;;;13.30;56.90;;;;;;5035292;28;20095;-49
2023/03/17 09:28:56;;;;;;;6.50;3.70;;;12.90;57.60;;;;;;5034912;28;20061;-48
2023/03/17 09:31:24;;;;;;;5.00;3.33;;;12.90;58.80;;;;;;5035096;28;20021;-46
2023/03/17 09:33:51;;;;;;;6.25;3.45;;;13.30;57.80;;;;;;5034741;28;20061;-47
2023/03/17 09:36:19;;;;;;;8.07;3.35;;;13.40;57.30;;;;;;5034066;28;20026;-48
2023/03/17 09:38:46;;;;;;;5.30;3.42;;;13.60;57.40;;;;;;5034612;28;20022;-46
2023/03/17 09:41:50;;;;;;;5.55;3.97;;;13.90;58.50;;;;;;5033845;28;20040;-46
2023/03/17 09:44:41;;;;;;;6.70;3.63;;;13.90;56.60;;;;;;5034696;28;20022;-47
2023/03/17 09:47:35;;;;;;;5.40;3.38;;;13.60;57.70;;;;;;5033837;28;20056;-47
2023/03/17 09:50:14;;;;;;;6.85;4.43;;;13.40;59.00;;;;;;5034075;28;20029;-46
2023/03/17 09:52:42;;;;;;;5.53;4.28;;;13.70;58.30;;;;;;5043027;28;20056;-47
2023/03/17 09:55:22;;;;;;;5.80;3.47;;;14.10;58.50;;;;;;5054524;28;20021;-46
2023/03/17 09:57:51;;;;;;;4.95;2.97;;;14.80;56.40;;;;;;5034562;28;20520;-48
2023/03/17 10:00:25;;;;;;;4.45;3.00;;;15.20;56.90;;;;;;5034843;28;20359;-47
2023/03/17 10:02:52;;;;;;;4.85;3.85;;;15.40;55.60;;;;;;5034518;28;20029;-46
2023/03/17 10:05:21;;;;;;;5.28;3.58;;;15.60;56.10;;;;;;5034463;28;20057;-50
2023/03/17 10:07:53;;;;;;;5.65;3.92;;;15.80;54.20;;;;;;5034636;28;20099;-46
2023/03/17 10:10:47;;;;;;;5.63;3.45;;;16.00;53.50;;;;;;5034229;28;20447;-48
2023/03/17 10:13:35;;;;;;;6.40;3.58;;;15.90;53.50;;;;;;5034446;28;20029;-47
2023/03/17 10:16:13;;;;;;;5.75;3.20;;;16.00;52.70;;;;;;5033873;28;20111;-46
2023/03/17 10:18:59;;;;;;;5.72;3.95;;;16.10;52.70;;;;;;5034434;28;20105;-46
2023/03/17 10:21:31;;;;;;;6.63;3.17;;;16.10;52.10;;;;;;5033933;28;20033;-46
2023/03/17 10:23:59;;;;;;;5.93;3.83;;;16.10;51.00;;;;;;5032976;28;20029;-46
2023/03/17 10:26:39;;;;;;;5.22;3.78;;;16.00;52.80;;;;;;5032822;28;20368;-45
2023/03/17 10:29:23;;;;;;;4.50;3.13;;;16.00;52.80;;;;;;5033115;28;20455;-47
2023/03/17 10:31:51;;;;;;;7.22;3.30;;;16.10;54.50;;;;;;5032152;28;20041;-46
2023/03/17 10:34:31;;;;;;;6.05;3.90;;;16.10;52.40;;;;;;5034067;28;20033;-47
2023/03/17 10:37:21;;;;;;;6.07;4.28;;;15.90;53.10;;;;;;5042597;28;20063;-47
2023/03/17 10:39:53;;;;;;;10.65;3.92;;;15.90;52.70;;;;;;5054034;28;20467;-46
2023/03/17 10:42:34;;;;;;;5.45;3.30;;;15.60;54.00;;;;;;5053866;28;20375;-46
2023/03/17 10:45:28;;;;;;;6.10;3.50;;;15.50;54.30;;;;;;5040083;28;20116;-48
2023/03/17 10:48:03;;;;;;;5.72;3.75;;;15.60;54.40;;;;;;5033850;28;20036;-49
2023/03/17 10:50:47;;;;;;;5.50;3.38;;;15.80;53.70;;;;;;5033418;28;20737;-50
2023/03/17 10:53:29;;;;;;;5.60;3.50;;;15.70;54.20;;;;;;5033364;28;20026;-46
2023/03/17 10:56:09;;;;;;;5.43;3.33;;;15.90;54.20;;;;;;5032434;28;20021;-46
2023/03/17 10:58:50;;;;;;;5.53;3.88;;;16.00;55.50;;;;;;5032815;28;20025;-46
2023/03/17 11:01:47;;;;;;;7.07;4.05;;;16.20;53.30;;;;;;5015176;28;20033;-46
2023/03/17 11:04:41;;;;;;;6.50;4.00;;;16.20;53.50;;;;;;5032252;28;20495;-48
2023/03/17 11:07:16;;;;;;;5.30;3.72;;;16.20;51.70;;;;;;5033434;28;20095;-46
2023/03/17 11:09:47;;;;;;;6.47;3.33;;;16.20;53.20;;;;;;5032705;28;20065;-47
2023/03/17 11:12:32;;;;;;;6.82;3.28;;;16.30;54.60;;;;;;5033061;28;20825;-47
2023/03/17 11:15:05;;;;;;;8.93;3.92;;;16.40;53.50;;;;;;5048457;28;20041;-47
2023/03/17 11:17:57;;;;;;;6.45;3.58;;;16.30;53.10;;;;;;5048391;28;20059;-48
2023/03/17 11:20:41;;;;;;;5.80;3.90;;;16.50;53.00;;;;;;5015241;28;20037;-46
2023/03/17 11:23:29;;;;;;;7.53;3.92;;;16.50;53.20;;;;;;5032596;28;20025;-46
2023/03/17 11:26:26;;;;;;;7.38;3.63;;;16.50;52.50;;;;;;5031780;28;20041;-50
2023/03/17 11:29:19;;;;;;;5.97;3.53;;;16.40;52.90;;;;;;5012895;28;20475;-48
2023/03/17 11:32:14;;;;;;;7.63;3.85;;;16.30;52.60;;;;;;5033286;28;20041;-49
2023/03/17 11:35:05;;;;;;;6.25;4.07;;;16.30;52.80;;;;;;5033305;28;20439;-48
2023/03/17 11:37:36;;;;;;;6.55;4.00;;;16.20;52.80;;;;;;5032766;28;20030;-49
2023/03/17 11:40:18;;;;;;;5.70;3.47;;;16.40;53.90;;;;;;5033059;28;20451;-48
2023/03/17 11:43:17;;;;;;;6.30;3.83;;;16.50;52.90;;;;;;5032467;28;20033;-46
2023/03/17 11:46:25;;;;;;;5.13;3.53;;;16.50;53.60;;;;;;5033133;28;20033;-46
2023/03/17 11:49:21;;;;;;;6.22;3.70;;;16.80;53.30;;;;;;5033596;28;20040;-46
2023/03/17 11:52:31;;;;;;;7.65;3.72;;;16.90;51.80;;;;;;5052826;28;20040;-46
2023/03/17 11:55:13;;;;;;;6.75;4.63;;;17.00;51.90;;;;;;5040207;28;20026;-46
2023/03/17 11:58:04;;;;;;;7.45;4.00;;;17.00;51.60;;;;;;5032844;28;20032;-46
2023/03/17 12:00:55;;;;;;;6.43;3.38;;;17.10;52.00;;;;;;5015476;28;20095;-46
2023/03/17 12:03:46;;;;;;;7.63;3.25;;;16.80;52.10;;;;;;5044285;28;20367;-47
2023/03/17 12:06:19;;;;;;;;;;;16.90;52.60;;;;;;5053000;28;20051;-46
2023/03/17 12:09:34;;;;;;;5.80;3.78;;;16.60;52.20;;;;;;5032978;28;19909;-46
2023/03/17 12:12:06;;;;;;;7.88;3.90;;;16.70;53.60;;;;;;5030564;28;20041;-46
2023/03/17 12:14:55;;;;;;;5.25;3.88;;;16.70;51.40;;;;;;5039211;28;20547;-46
2023/03/17 12:17:46;;;;;;;6.60;4.38;;;16.50;51.80;;;;;;5035555;28;20053;-46
2023/03/17 12:20:30;;;;;;;6.63;4.38;;;16.60;52.10;;;;;;5018948;28;20025;-46
2023/03/17 12:23:28;;;;;;;6.90;4.43;;;16.40;52.00;;;;;;5034906;28;20022;-46
2023/03/17 12:26:24;;;;;;;7.15;4.75;;;16.40;53.10;;;;;;5036081;28;20037;-46
2023/03/17 12:29:26;;;;;;;7.32;4.10;;;16.50;53.20;;;;;;5034918;28;20099;-45
2023/03/17 12:32:23;;;;;;;6.57;4.07;;;16.50;53.70;;;;;;5035583;28;20439;-46
2023/03/17 12:35:04;;;;;;;6.35;4.22;;;16.60;53.80;;;;;;5035490;28;20163;-46
2023/03/17 12:37:33;;;;;;;7.53;4.75;;;16.80;54.00;;;;;;5035335;28;20030;-46
2023/03/17 12:40:16;;;;;;;6.55;4.25;;;16.60;53.60;;;;;;5044293;28;20021;-50
2023/03/17 12:42:54;;;;;;;9.80;5.53;;;16.90;52.90;;;;;;5056301;28;20066;-46
2023/03/17 12:45:44;;;;;;;7.18;4.22;;;17.00;52.70;;;;;;5055831;28;20028;-46
2023/03/17 12:48:13;;;;;;;7.20;4.50;;;16.90;52.50;;;;;;5053909;28;20104;-50
2023/03/17 12:51:05;;;;;;;8.00;4.55;;;17.00;53.10;;;;;;5035940;28;20052;-48
2023/03/17 12:53:35;;;;;;;7.45;4.28;;;17.00;52.30;;;;;;5036143;28;20029;-48
2023/03/17 12:56:18;;;;;;;7.65;4.28;;;16.90;52.50;;;;;;5035001;28;20039;-46
2023/03/17 12:58:49;;;;;;;6.70;3.90;;;16.90;53.70;;;;;;5034980;28;20057;-48
2023/03/17 13:01:40;;;;;;;7.13;4.38;;;16.90;53.00;;;;;;5034753;28;20087;-46
2023/03/17 13:04:23;;;;;;;8.48;4.90;;;16.70;53.30;;;;;;5035470;28;20358;-47
2023/03/17 13:07:14;;;;;;;7.25;4.85;;;16.70;51.70;;;;;;5035708;28;20029;-46
2023/03/17 13:10:02;;;;;;;8.27;4.38;;;16.50;52.90;;;;;;5034735;28;20041;-46
2023/03/17 13:12:45;;;;;;;6.35;3.88;;;16.40;52.00;;;;;;5034678;28;20112;-48
2023/03/17 13:15:37;;;;;;;6.85;4.25;;;16.40;54.50;;;;;;5035243;28;20049;-48
2023/03/17 13:18:33;;;;;;;7.80;4.40;;;16.30;54.60;;;;;;5035015;28;20033;-46
2023/03/17 13:21:04;;;;;;;8.15;4.78;;;16.30;53.80;;;;;;5035277;28;20714;-48
2023/03/17 13:23:56;;;;;;;6.32;4.82;;;16.30;55.70;;;;;;5037384;28;20025;-48
2023/03/17 13:26:49;;;;;;;6.68;4.65;;;16.40;54.50;;;;;;5053867;28;20090;-48